createdAt,value
2023-10-19T00:00:02.546Z,9.80
2023-10-19T00:05:05.243Z,9.80
2023-10-19T00:10:08.918Z,10.00
2023-10-19T00:15:11.532Z,9.90
2023-10-19T00:20:13.254Z,9.80
2023-10-19T00:25:16.389Z,9.90
2023-10-19T00:30:18.222Z,9.80
2023-10-19T00:35:20.147Z,9.80
2023-10-19T00:40:23.338Z,9.80
2023-10-19T00:45:25.220Z,9.80
2023-10-19T00:50:27.078Z,9.90
2023-10-19T00:55:30.871Z,9.80
2023-10-19T01:00:32.642Z,10.00
2023-10-19T01:05:34.402Z,9.90
2023-10-19T01:10:37.822Z,9.90
2023-10-19T01:15:39.644Z,9.90
2023-10-19T01:20:41.365Z,9.90
2023-10-19T01:25:49.133Z,9.90
2023-10-19T01:30:50.963Z,9.90
2023-10-19T01:35:52.685Z,9.90
2023-10-19T01:40:56.973Z,9.90
2023-10-19T01:46:00.125Z,10.00
2023-10-19T01:51:04.278Z,10.00
2023-10-19T01:56:07.802Z,10.00
2023-10-19T02:01:10.980Z,10.00
2023-10-19T02:06:14.934Z,10.00
2023-10-19T02:11:20.812Z,10.00
2023-10-19T02:16:23.700Z,10.00
2023-10-19T02:21:25.554Z,10.00
2023-10-19T02:26:28.653Z,10.00
2023-10-19T02:31:30.386Z,10.10
2023-10-19T02:36:32.538Z,10.10
2023-10-19T02:41:36.853Z,10.20
2023-10-19T02:46:38.730Z,10.20
2023-10-19T02:51:41.590Z,10.40
2023-10-19T02:56:44.747Z,10.60
2023-10-19T03:01:46.470Z,10.80
2023-10-19T03:06:49.022Z,11.00
2023-10-19T03:11:52.184Z,11.00
2023-10-19T03:16:54.419Z,11.10
2023-10-19T03:21:56.525Z,11.20
2023-10-19T03:27:00.011Z,11.20
2023-10-19T03:32:01.883Z,11.30
2023-10-19T03:37:03.855Z,11.30
2023-10-19T03:42:07.149Z,11.20
2023-10-19T03:47:08.936Z,11.30
2023-10-19T03:52:10.697Z,11.30
2023-10-19T03:57:15.696Z,11.30
2023-10-19T04:02:17.985Z,11.20
2023-10-19T04:07:20.187Z,11.30
2023-10-19T04:12:23.335Z,11.30
2023-10-19T04:17:25.611Z,11.30
2023-10-19T04:22:27.461Z,11.30
2023-10-19T04:27:30.930Z,11.30
2023-10-19T04:32:32.650Z,11.30
2023-10-19T04:37:34.416Z,11.30
2023-10-19T04:42:38.186Z,11.30
2023-10-19T04:47:40.470Z,11.30
2023-10-19T04:52:42.358Z,11.30
2023-10-19T04:57:45.551Z,11.30
2023-10-19T05:02:47.512Z,11.40
2023-10-19T05:07:49.355Z,11.40
2023-10-19T05:12:52.466Z,11.30
2023-10-19T05:17:55.392Z,11.40
2023-10-19T05:22:57.224Z,11.40
2023-10-19T05:28:00.450Z,11.40
2023-10-19T05:33:02.540Z,11.50
2023-10-19T05:38:04.595Z,11.40
2023-10-19T05:43:07.749Z,11.40
2023-10-19T05:48:09.557Z,11.40
2023-10-19T05:53:11.271Z,11.40
2023-10-19T05:58:14.474Z,11.40
2023-10-19T06:03:16.234Z,11.50
2023-10-19T06:08:18.033Z,11.50
2023-10-19T06:13:21.471Z,11.50
2023-10-19T06:18:23.331Z,11.50
2023-10-19T06:23:25.475Z,11.60
2023-10-19T06:28:28.689Z,11.60
2023-10-19T06:33:30.494Z,11.60
2023-10-19T06:38:32.295Z,11.60
2023-10-19T06:43:35.477Z,11.70
2023-10-19T06:48:37.283Z,11.70
2023-10-19T06:53:39.092Z,11.70
2023-10-19T06:58:42.349Z,11.70
2023-10-19T07:03:44.174Z,11.80
2023-10-19T07:08:45.963Z,11.90
2023-10-19T07:13:49.168Z,11.90
2023-10-19T07:18:53.910Z,11.90
2023-10-19T07:23:58.622Z,12.00
2023-10-19T07:29:01.812Z,12.00
2023-10-19T07:34:03.634Z,12.10
2023-10-19T07:39:05.462Z,12.10
2023-10-19T07:44:08.643Z,12.20
2023-10-19T07:49:10.402Z,12.20
2023-10-19T07:54:12.183Z,12.20
2023-10-19T07:59:15.412Z,12.30
2023-10-19T08:04:17.227Z,12.50
2023-10-19T08:09:19.153Z,12.50
2023-10-19T08:14:22.533Z,12.50
2023-10-19T08:19:24.284Z,12.60
2023-10-19T08:24:26.107Z,12.60
2023-10-19T08:29:29.274Z,12.70
2023-10-19T08:34:34.668Z,12.80
2023-10-19T08:39:36.588Z,12.90
2023-10-19T08:44:39.768Z,13.00
2023-10-19T08:49:43.972Z,13.00
2023-10-19T08:54:46.487Z,13.10
2023-10-19T08:59:52.044Z,13.20
2023-10-19T09:04:56.499Z,13.20
2023-10-19T09:09:58.449Z,13.30
2023-10-19T09:15:01.582Z,13.40
2023-10-19T09:20:03.737Z,13.80
2023-10-19T09:25:06.626Z,13.80
2023-10-19T09:30:13.444Z,14.00
2023-10-19T09:35:16.486Z,14.10
2023-10-19T09:40:18.350Z,14.40
2023-10-19T09:45:28.856Z,14.60
2023-10-19T09:50:30.662Z,14.80
2023-10-19T09:55:38.747Z,15.20
2023-10-19T10:00:44.712Z,15.70
2023-10-19T10:05:46.821Z,16.10
2023-10-19T10:10:52.110Z,16.10
2023-10-19T10:15:59.311Z,16.00
2023-10-19T10:21:07.882Z,16.10
2023-10-19T10:26:10.857Z,16.20
2023-10-19T10:31:16.053Z,16.20
2023-10-19T10:36:18.091Z,16.60
2023-10-19T10:41:23.648Z,16.70
2023-10-19T10:46:28.497Z,16.90
2023-10-19T10:51:30.461Z,16.80
2023-10-19T10:56:32.279Z,17.00
2023-10-19T11:01:35.497Z,17.00
2023-10-19T11:06:50.629Z,16.80
2023-10-19T11:11:52.480Z,16.60
2023-10-19T11:17:12.860Z,16.50
2023-10-19T11:22:14.771Z,16.50
2023-10-19T11:27:23.544Z,16.50
2023-10-19T11:32:27.114Z,16.40
2023-10-19T11:37:28.894Z,16.30
2023-10-19T11:42:33.538Z,16.30
2023-10-19T11:47:36.699Z,16.30
2023-10-19T11:52:38.558Z,16.40
2023-10-19T11:57:40.616Z,16.50
2023-10-19T12:02:46.479Z,16.60
2023-10-19T12:07:48.344Z,16.60
2023-10-19T12:13:00.702Z,16.70
2023-10-19T12:18:05.300Z,16.70
2023-10-19T12:23:07.168Z,16.70
2023-10-19T12:28:09.326Z,16.70
2023-10-19T12:33:12.792Z,16.80
2023-10-19T12:38:14.740Z,16.60
2023-10-19T12:43:17.338Z,16.70
2023-10-19T12:48:21.144Z,16.60
2023-10-19T12:53:23.006Z,16.40
2023-10-19T12:58:24.857Z,16.30
2023-10-19T13:03:28.049Z,16.20
2023-10-19T13:08:29.969Z,16.20
2023-10-19T13:13:31.728Z,16.10
2023-10-19T13:18:34.879Z,16.20
2023-10-19T13:23:36.739Z,16.20
2023-10-19T13:28:38.668Z,16.30
2023-10-19T13:33:41.960Z,16.20
2023-10-19T13:38:43.745Z,16.10
2023-10-19T13:43:45.611Z,16.00
2023-10-19T13:48:48.921Z,16.10
2023-10-19T13:53:50.623Z,16.10
2023-10-19T13:58:52.979Z,16.10
2023-10-19T14:03:58.710Z,16.10
2023-10-19T14:09:00.599Z,15.90
2023-10-19T14:14:02.472Z,15.80
2023-10-19T14:19:05.827Z,15.70
2023-10-19T14:24:08.124Z,15.60
2023-10-19T14:29:09.984Z,15.60
2023-10-19T14:34:13.147Z,15.60
2023-10-19T14:39:14.901Z,15.50
2023-10-19T14:44:19.763Z,15.40
2023-10-19T14:49:23.489Z,15.40
2023-10-19T14:54:25.298Z,15.40
2023-10-19T14:59:27.007Z,15.40
2023-10-19T15:04:30.237Z,15.40
2023-10-19T15:09:32.319Z,15.40
2023-10-19T15:14:34.374Z,15.40
2023-10-19T15:19:37.883Z,15.60
2023-10-19T15:24:39.760Z,15.50
2023-10-19T15:29:41.608Z,15.50
2023-10-19T15:34:44.830Z,15.30
2023-10-19T15:39:46.660Z,15.20
2023-10-19T15:44:48.809Z,15.50
2023-10-19T15:49:53.330Z,15.60
2023-10-19T15:54:57.210Z,15.50
2023-10-19T15:59:58.995Z,15.50
2023-10-19T16:05:02.273Z,15.40
2023-10-19T16:10:04.510Z,15.30
2023-10-19T16:15:07.360Z,15.10
2023-10-19T16:20:11.703Z,15.00
2023-10-19T16:25:13.697Z,14.80
2023-10-19T16:30:15.610Z,14.70
2023-10-19T16:35:19.064Z,14.60
2023-10-19T16:40:20.900Z,14.70
2023-10-19T16:45:22.668Z,14.70
2023-10-19T16:50:25.854Z,14.90
2023-10-19T16:55:28.581Z,14.90
2023-10-19T17:00:30.343Z,14.90
2023-10-19T17:05:33.522Z,14.80
2023-10-19T17:10:35.323Z,14.50
2023-10-19T17:15:37.150Z,14.30
2023-10-19T17:20:40.304Z,14.30
2023-10-19T17:25:42.138Z,14.20
2023-10-19T17:30:44.052Z,14.20
2023-10-19T17:35:47.283Z,14.20
2023-10-19T17:40:49.137Z,14.20
2023-10-19T17:45:50.872Z,14.30
2023-10-19T17:50:54.068Z,14.20
2023-10-19T17:55:57.506Z,14.20
2023-10-19T18:00:59.368Z,14.20
2023-10-19T18:06:02.914Z,14.10
2023-10-19T18:11:05.320Z,14.00
2023-10-19T18:16:07.269Z,14.00
2023-10-19T18:21:13.824Z,14.00
2023-10-19T18:26:16.009Z,13.90
2023-10-19T18:31:17.814Z,13.90
2023-10-19T18:36:20.966Z,13.90
2023-10-19T18:41:22.815Z,13.90
2023-10-19T18:46:24.611Z,14.00
2023-10-19T18:51:28.153Z,14.20
2023-10-19T18:56:29.875Z,14.30
2023-10-19T19:01:31.608Z,14.40
2023-10-19T19:06:34.812Z,14.50
2023-10-19T19:11:36.508Z,14.40
2023-10-19T19:16:38.225Z,14.20
2023-10-19T19:21:41.369Z,14.20
2023-10-19T19:26:43.122Z,14.30
2023-10-19T19:31:45.050Z,14.20
2023-10-19T19:36:48.268Z,14.30
2023-10-19T19:41:50.025Z,14.40
2023-10-19T19:46:52.018Z,14.40
2023-10-19T19:51:55.388Z,14.30
2023-10-19T19:56:59.732Z,14.10
2023-10-19T20:02:01.768Z,13.90
2023-10-19T20:07:07.761Z,13.70
2023-10-19T20:12:09.488Z,13.80
2023-10-19T20:17:12.616Z,13.60
2023-10-19T20:22:17.631Z,13.50
2023-10-19T20:27:19.341Z,13.30
2023-10-19T20:32:21.177Z,13.30
2023-10-19T20:37:24.449Z,13.30
2023-10-19T20:42:26.206Z,13.40
2023-10-19T20:47:28.078Z,13.30
2023-10-19T20:52:31.386Z,13.30
2023-10-19T20:57:34.437Z,13.10
2023-10-19T21:02:36.365Z,13.10
2023-10-19T21:07:39.972Z,13.10
2023-10-19T21:12:44.500Z,13.10
2023-10-19T21:17:48.302Z,13.00
2023-10-19T21:22:51.600Z,13.10
2023-10-19T21:27:53.432Z,13.20
2023-10-19T21:32:55.423Z,13.40
2023-10-19T21:38:01.744Z,13.50
2023-10-19T21:43:03.640Z,13.60
2023-10-19T21:48:06.607Z,13.60
2023-10-19T21:53:09.885Z,13.80
2023-10-19T21:58:11.727Z,13.90
2023-10-19T22:03:15.617Z,13.80
2023-10-19T22:08:19.098Z,13.80
2023-10-19T22:13:23.243Z,13.90
2023-10-19T22:18:25.178Z,13.90
2023-10-19T22:23:28.593Z,13.90
2023-10-19T22:28:30.611Z,13.70
2023-10-19T22:33:32.564Z,13.50
2023-10-19T22:38:35.839Z,13.60
2023-10-19T22:43:38.041Z,13.60
2023-10-19T22:48:39.866Z,13.50
2023-10-19T22:53:42.966Z,13.50
2023-10-19T22:58:44.698Z,13.50
2023-10-19T23:03:46.672Z,13.40
2023-10-19T23:08:49.675Z,13.40
2023-10-19T23:13:51.383Z,13.40
2023-10-19T23:18:53.161Z,13.40
2023-10-19T23:23:56.421Z,13.40
2023-10-19T23:28:58.424Z,13.40
2023-10-19T23:34:00.176Z,13.40
2023-10-19T23:39:03.497Z,13.40
2023-10-19T23:44:05.384Z,13.40
2023-10-19T23:49:07.180Z,13.40
2023-10-19T23:54:10.319Z,13.40
2023-10-19T23:59:12.088Z,13.40
